sensor_id;sensor_type;location;lat;lon;timestamp;pressure;altitude;pressure_sealevel;temperature;humidity
23170;BME280;11753;43.144;24.714;2023-07-31T12:12:37;99048.91;;;29.04;57.42
23170;BME280;11753;43.144;24.714;2023-07-31T12:13:38;99043.16;;;29.11;58.02
23170;BME280;11753;43.144;24.714;2023-07-31T12:14:47;99034.69;;;29.18;56.95
23170;BME280;11753;43.144;24.714;2023-07-31T12:16:12;99050.47;;;28.58;58.01
23170;BME280;11753;43.144;24.714;2023-07-31T13:08:05;99004.59;;;30.32;54.70
23170;BME280;11753;43.144;24.714;2023-07-31T13:09:10;99019.69;;;30.38;47.88
23170;BME280;11753;43.144;24.714;2023-07-31T13:10:17;98995.94;;;30.30;47.73
23170;BME280;11753;43.144;24.714;2023-07-31T13:11:17;99004.22;;;30.39;47.89
23170;BME280;11753;43.144;24.714;2023-07-31T13:12:18;98994.19;;;30.53;47.26
23170;BME280;11753;43.144;24.714;2023-07-31T13:13:18;99002.81;;;30.55;47.28
23170;BME280;11753;43.144;24.714;2023-07-31T13:14:31;98993.34;;;30.39;48.10
23170;BME280;11753;43.144;24.714;2023-07-31T13:15:31;99017.34;;;30.32;48.56
23170;BME280;11753;43.144;24.714;2023-07-31T13:16:46;99010.28;;;29.98;49.21
23170;BME280;11753;43.144;24.714;2023-07-31T13:18:15;99013.38;;;30.10;49.73
23170;BME280;11753;43.144;24.714;2023-07-31T13:19:18;99018.47;;;30.31;49.18
23170;BME280;11753;43.144;24.714;2023-07-31T13:20:18;99007.84;;;30.48;48.13
23170;BME280;11753;43.144;24.714;2023-07-31T13:21:19;98997.50;;;30.18;48.45
23170;BME280;11753;43.144;24.714;2023-07-31T13:22:19;99006.81;;;30.30;48.53
23170;BME280;11753;43.144;24.714;2023-07-31T13:23:19;99002.78;;;30.41;48.83
23170;BME280;11753;43.144;24.714;2023-07-31T13:24:22;98991.53;;;30.34;48.33
23170;BME280;11753;43.144;24.714;2023-07-31T13:25:23;99005.19;;;30.29;49.29
23170;BME280;11753;43.144;24.714;2023-07-31T13:26:29;98988.38;;;29.76;48.65
23170;BME280;11753;43.144;24.714;2023-07-31T13:28:39;99012.13;;;29.84;49.47
23170;BME280;11753;43.144;24.714;2023-07-31T13:31:18;98996.88;;;29.69;50.97
23170;BME280;11753;43.144;24.714;2023-07-31T13:40:16;98984.75;;;29.99;49.34
23170;BME280;11753;43.144;24.714;2023-07-31T13:41:16;98995.16;;;29.92;48.71
23170;BME280;11753;43.144;24.714;2023-07-31T13:42:17;98992.47;;;30.11;48.33
23170;BME280;11753;43.144;24.714;2023-07-31T13:43:17;98988.69;;;30.26;48.24
23170;BME280;11753;43.144;24.714;2023-07-31T13:44:17;98999.59;;;30.39;47.41
23170;BME280;11753;43.144;24.714;2023-07-31T13:51:16;99003.91;;;30.40;46.98
23170;BME280;11753;43.144;24.714;2023-07-31T13:52:16;98991.25;;;30.50;46.48
23170;BME280;11753;43.144;24.714;2023-07-31T13:53:17;99008.25;;;30.55;45.47
23170;BME280;11753;43.144;24.714;2023-07-31T13:54:17;99005.53;;;30.55;45.81
23170;BME280;11753;43.144;24.714;2023-07-31T13:55:18;98991.78;;;30.65;45.24
23170;BME280;11753;43.144;24.714;2023-07-31T13:56:18;98980.22;;;30.60;44.40
23170;BME280;11753;43.144;24.714;2023-07-31T13:57:19;98980.47;;;30.31;44.77
23170;BME280;11753;43.144;24.714;2023-07-31T13:58:20;99005.69;;;30.31;45.27
23170;BME280;11753;43.144;24.714;2023-07-31T13:59:22;99019.84;;;30.28;45.02
23170;BME280;11753;43.144;24.714;2023-07-31T14:00:25;99025.50;;;30.32;44.71
23170;BME280;11753;43.144;24.714;2023-07-31T14:01:45;99005.34;;;30.00;45.02
23170;BME280;11753;43.144;24.714;2023-07-31T14:02:48;99010.00;;;29.81;46.08
23170;BME280;11753;43.144;24.714;2023-07-31T14:03:49;98996.16;;;29.64;46.26
23170;BME280;11753;43.144;24.714;2023-07-31T14:04:54;99004.50;;;29.67;46.73
23170;BME280;11753;43.144;24.714;2023-07-31T14:06:02;99005.81;;;29.70;46.58
23170;BME280;11753;43.144;24.714;2023-07-31T14:07:05;99001.44;;;29.74;46.97
23170;BME280;11753;43.144;24.714;2023-07-31T14:08:05;99002.94;;;29.99;46.34
23170;BME280;11753;43.144;24.714;2023-07-31T14:09:07;99001.91;;;30.13;46.55
23170;BME280;11753;43.144;24.714;2023-07-31T14:10:08;99001.16;;;30.27;46.68
23170;BME280;11753;43.144;24.714;2023-07-31T14:11:14;98998.38;;;30.46;46.02
23170;BME280;11753;43.144;24.714;2023-07-31T14:12:15;99000.81;;;30.47;45.64
23170;BME280;11753;43.144;24.714;2023-07-31T14:13:15;99010.81;;;30.65;44.65
23170;BME280;11753;43.144;24.714;2023-07-31T14:14:15;99003.63;;;30.56;45.00
23170;BME280;11753;43.144;24.714;2023-07-31T14:15:18;99000.03;;;30.60;45.34
23170;BME280;11753;43.144;24.714;2023-07-31T14:16:18;99006.59;;;30.73;45.06
23170;BME280;11753;43.144;24.714;2023-07-31T14:17:21;99011.25;;;30.86;44.80
23170;BME280;11753;43.144;24.714;2023-07-31T14:18:22;99001.00;;;30.64;42.22
23170;BME280;11753;43.144;24.714;2023-07-31T14:19:22;99012.31;;;30.72;42.54
23170;BME280;11753;43.144;24.714;2023-07-31T14:20:25;99005.69;;;30.78;42.54
23170;BME280;11753;43.144;24.714;2023-07-31T14:21:26;99029.44;;;31.00;43.03
23170;BME280;11753;43.144;24.714;2023-07-31T14:22:29;99021.00;;;30.74;43.37
23170;BME280;11753;43.144;24.714;2023-07-31T14:23:43;99008.63;;;30.95;43.38
23170;BME280;11753;43.144;24.714;2023-07-31T14:24:44;99005.31;;;31.26;43.38
23170;BME280;11753;43.144;24.714;2023-07-31T14:30:30;99011.69;;;31.57;41.40
23170;BME280;11753;43.144;24.714;2023-07-31T14:31:33;99013.06;;;31.68;40.87
23170;BME280;11753;43.144;24.714;2023-07-31T14:32:46;99023.31;;;31.71;39.87
23170;BME280;11753;43.144;24.714;2023-07-31T14:33:51;99014.75;;;31.42;39.80
23170;BME280;11753;43.144;24.714;2023-07-31T14:34:59;99010.53;;;31.08;40.94
23170;BME280;11753;43.144;24.714;2023-07-31T14:36:20;99011.53;;;31.12;41.32
23170;BME280;11753;43.144;24.714;2023-07-31T14:37:23;99004.88;;;31.18;41.85
23170;BME280;11753;43.144;24.714;2023-07-31T14:38:29;99006.97;;;31.21;42.36
23170;BME280;11753;43.144;24.714;2023-07-31T14:39:35;99016.97;;;31.40;41.78
23170;BME280;11753;43.144;24.714;2023-07-31T14:40:35;99008.41;;;30.91;42.32
23170;BME280;11753;43.144;24.714;2023-07-31T14:41:38;99004.19;;;30.85;41.83
23170;BME280;11753;43.144;24.714;2023-07-31T14:42:44;99004.31;;;31.08;41.83
23170;BME280;11753;43.144;24.714;2023-07-31T14:43:47;98989.00;;;31.26;41.95
23170;BME280;11753;43.144;24.714;2023-07-31T14:44:47;98981.66;;;31.26;41.17
23170;BME280;11753;43.144;24.714;2023-07-31T14:45:50;98979.81;;;31.21;41.77
23170;BME280;11753;43.144;24.714;2023-07-31T14:46:53;98979.47;;;31.50;41.70
23170;BME280;11753;43.144;24.714;2023-07-31T14:47:53;98984.28;;;31.67;40.88
23170;BME280;11753;43.144;24.714;2023-07-31T14:48:56;98977.22;;;31.80;40.54
23170;BME280;11753;43.144;24.714;2023-07-31T14:50:00;98983.94;;;31.83;39.35
23170;BME280;11753;43.144;24.714;2023-07-31T14:51:03;98980.09;;;31.84;39.85
23170;BME280;11753;43.144;24.714;2023-07-31T14:52:03;98974.44;;;31.94;39.50
23170;BME280;11753;43.144;24.714;2023-07-31T14:53:03;98992.03;;;31.96;40.24
23170;BME280;11753;43.144;24.714;2023-07-31T14:54:04;98982.59;;;31.94;39.91
23170;BME280;11753;43.144;24.714;2023-07-31T14:55:04;98984.84;;;31.78;40.34
23170;BME280;11753;43.144;24.714;2023-07-31T14:56:05;98988.47;;;31.73;39.61
23170;BME280;11753;43.144;24.714;2023-07-31T14:57:06;98992.53;;;31.62;40.21
23170;BME280;11753;43.144;24.714;2023-07-31T14:58:06;98992.78;;;31.52;40.77
23170;BME280;11753;43.144;24.714;2023-07-31T14:59:06;98987.56;;;31.42;40.99
23170;BME280;11753;43.144;24.714;2023-07-31T15:00:08;98986.56;;;31.38;40.95
23170;BME280;11753;43.144;24.714;2023-07-31T15:01:08;98988.88;;;31.44;40.93
23170;BME280;11753;43.144;24.714;2023-07-31T15:02:09;98989.53;;;31.50;41.63
23170;BME280;11753;43.144;24.714;2023-07-31T15:03:09;98996.22;;;31.44;40.02
23170;BME280;11753;43.144;24.714;2023-07-31T15:04:09;98988.19;;;31.39;40.78
23170;BME280;11753;43.144;24.714;2023-07-31T15:05:12;98981.34;;;31.00;41.26
23170;BME280;11753;43.144;24.714;2023-07-31T15:06:12;98990.41;;;31.09;41.42
23170;BME280;11753;43.144;24.714;2023-07-31T15:07:13;98994.00;;;31.18;41.18
23170;BME280;11753;43.144;24.714;2023-07-31T15:08:13;98989.63;;;31.22;41.23
23170;BME280;11753;43.144;24.714;2023-07-31T15:09:14;98991.41;;;31.13;41.44
23170;BME280;11753;43.144;24.714;2023-07-31T15:10:17;98983.16;;;31.18;41.57
23170;BME280;11753;43.144;24.714;2023-07-31T15:11:17;98988.81;;;31.08;41.31
23170;BME280;11753;43.144;24.714;2023-07-31T15:12:18;98983.56;;;30.98;41.44
23170;BME280;11753;43.144;24.714;2023-07-31T15:13:18;98984.75;;;30.92;41.90
23170;BME280;11753;43.144;24.714;2023-07-31T15:14:19;98980.34;;;30.96;41.01
23170;BME280;11753;43.144;24.714;2023-07-31T15:15:19;98978.34;;;31.02;41.24
23170;BME280;11753;43.144;24.714;2023-07-31T15:16:19;98985.47;;;31.25;41.46
23170;BME280;11753;43.144;24.714;2023-07-31T15:17:20;98977.31;;;31.25;41.24
23170;BME280;11753;43.144;24.714;2023-07-31T15:18:20;98982.16;;;31.64;40.45
23170;BME280;11753;43.144;24.714;2023-07-31T15:19:21;98980.63;;;32.08;39.75
23170;BME280;11753;43.144;24.714;2023-07-31T15:20:22;98978.53;;;32.67;39.13
23170;BME280;11753;43.144;24.714;2023-07-31T15:21:23;98979.75;;;33.40;38.11
23170;BME280;11753;43.144;24.714;2023-07-31T15:22:23;98977.84;;;34.02;35.84
23170;BME280;11753;43.144;24.714;2023-07-31T15:23:24;98982.72;;;34.52;36.18
23170;BME280;11753;43.144;24.714;2023-07-31T15:24:26;98977.69;;;35.00;34.15
23170;BME280;11753;43.144;24.714;2023-07-31T15:25:27;98989.84;;;35.41;33.69
23170;BME280;11753;43.144;24.714;2023-07-31T15:26:27;98984.75;;;35.31;33.14
23170;BME280;11753;43.144;24.714;2023-07-31T15:27:28;98983.38;;;34.87;33.95
23170;BME280;11753;43.144;24.714;2023-07-31T15:28:28;98989.50;;;34.45;34.40
23170;BME280;11753;43.144;24.714;2023-07-31T15:29:29;98988.91;;;34.69;34.38
23170;BME280;11753;43.144;24.714;2023-07-31T15:30:29;98966.56;;;34.12;34.58
23170;BME280;11753;43.144;24.714;2023-07-31T15:31:30;98983.22;;;34.83;34.01
23170;BME280;11753;43.144;24.714;2023-07-31T15:32:30;98991.72;;;35.49;33.10
23170;BME280;11753;43.144;24.714;2023-07-31T15:33:31;98988.19;;;35.91;32.26
23170;BME280;11753;43.144;24.714;2023-07-31T15:34:34;99007.91;;;36.17;31.66
23170;BME280;11753;43.144;24.714;2023-07-31T15:35:34;98997.06;;;35.67;32.68
23170;BME280;11753;43.144;24.714;2023-07-31T15:36:34;99007.50;;;34.85;33.47
23170;BME280;11753;43.144;24.714;2023-07-31T15:37:35;98997.25;;;34.17;34.37
23170;BME280;11753;43.144;24.714;2023-07-31T15:38:35;99003.75;;;32.81;36.73
23170;BME280;11753;43.144;24.714;2023-07-31T15:39:35;99003.19;;;32.62;37.25
23170;BME280;11753;43.144;24.714;2023-07-31T15:40:36;99009.97;;;32.73;37.47
23170;BME280;11753;43.144;24.714;2023-07-31T15:41:36;98994.69;;;32.95;37.30
23170;BME280;11753;43.144;24.714;2023-07-31T15:42:37;99007.34;;;33.48;36.71
23170;BME280;11753;43.144;24.714;2023-07-31T15:43:39;98991.31;;;33.55;36.18
23170;BME280;11753;43.144;24.714;2023-07-31T15:44:40;98995.47;;;33.61;35.83
23170;BME280;11753;43.144;24.714;2023-07-31T15:45:40;99010.16;;;33.25;36.75
23170;BME280;11753;43.144;24.714;2023-07-31T15:46:40;99011.63;;;32.83;37.06
23170;BME280;11753;43.144;24.714;2023-07-31T15:47:41;99008.38;;;32.41;38.08
23170;BME280;11753;43.144;24.714;2023-07-31T15:48:41;99002.31;;;32.84;37.70
23170;BME280;11753;43.144;24.714;2023-07-31T15:49:41;98999.31;;;33.43;36.76
23170;BME280;11753;43.144;24.714;2023-07-31T15:50:42;98990.03;;;33.61;36.67
23170;BME280;11753;43.144;24.714;2023-07-31T15:51:42;99004.00;;;33.68;36.72
23170;BME280;11753;43.144;24.714;2023-07-31T15:52:42;99008.91;;;33.31;35.88
23170;BME280;11753;43.144;24.714;2023-07-31T15:53:43;99016.84;;;33.02;36.00
23170;BME280;11753;43.144;24.714;2023-07-31T15:54:43;99007.13;;;32.02;38.35
23170;BME280;11753;43.144;24.714;2023-07-31T15:55:43;99009.81;;;31.94;38.40
23170;BME280;11753;43.144;24.714;2023-07-31T15:56:44;99019.47;;;31.86;39.08
23170;BME280;11753;43.144;24.714;2023-07-31T15:57:44;99026.47;;;31.78;39.18
23170;BME280;11753;43.144;24.714;2023-07-31T15:58:44;99018.69;;;31.22;40.04
23170;BME280;11753;43.144;24.714;2023-07-31T15:59:45;99028.63;;;30.99;40.93
23170;BME280;11753;43.144;24.714;2023-07-31T16:00:45;99036.09;;;30.47;41.37
23170;BME280;11753;43.144;24.714;2023-07-31T16:06:39;99018.19;;;30.13;43.03
23170;BME280;11753;43.144;24.714;2023-07-31T16:07:40;99005.28;;;30.98;41.34
23170;BME280;11753;43.144;24.714;2023-07-31T16:08:40;99007.34;;;31.56;39.84
23170;BME280;11753;43.144;24.714;2023-07-31T16:09:41;99020.97;;;32.15;37.92
23170;BME280;11753;43.144;24.714;2023-07-31T16:10:41;99021.66;;;32.43;37.53
23170;BME280;11753;43.144;24.714;2023-07-31T16:11:42;99013.72;;;32.55;37.92
23170;BME280;11753;43.144;24.714;2023-07-31T16:12:42;99015.59;;;33.08;36.40
23170;BME280;11753;43.144;24.714;2023-07-31T16:13:42;99008.81;;;33.62;35.79
23170;BME280;11753;43.144;24.714;2023-07-31T16:14:43;99012.16;;;34.37;33.60
23170;BME280;11753;43.144;24.714;2023-07-31T16:15:43;99010.38;;;34.88;32.87
23170;BME280;11753;43.144;24.714;2023-07-31T16:16:43;99005.03;;;35.30;32.70
23170;BME280;11753;43.144;24.714;2023-07-31T16:17:46;99000.00;;;35.62;32.24
23170;BME280;11753;43.144;24.714;2023-07-31T16:18:46;99004.25;;;35.50;32.00
23170;BME280;11753;43.144;24.714;2023-07-31T16:19:47;99002.03;;;35.23;32.40
23170;BME280;11753;43.144;24.714;2023-07-31T16:20:47;99005.69;;;34.97;32.23
23170;BME280;11753;43.144;24.714;2023-07-31T16:21:48;99008.66;;;34.75;32.65
23170;BME280;11753;43.144;24.714;2023-07-31T16:22:48;99004.13;;;34.41;32.81
23170;BME280;11753;43.144;24.714;2023-07-31T16:23:49;98997.72;;;33.76;34.20
23170;BME280;11753;43.144;24.714;2023-07-31T16:24:49;98991.13;;;32.85;35.64
23170;BME280;11753;43.144;24.714;2023-07-31T16:25:50;99007.41;;;32.37;36.05
23170;BME280;11753;43.144;24.714;2023-07-31T16:26:50;98997.53;;;31.33;37.38
23170;BME280;11753;43.144;24.714;2023-07-31T16:27:50;98995.84;;;30.82;38.90
23170;BME280;11753;43.144;24.714;2023-07-31T16:28:51;98991.63;;;30.76;39.10
23170;BME280;11753;43.144;24.714;2023-07-31T16:29:51;98991.88;;;30.60;39.66
23170;BME280;11753;43.144;24.714;2023-07-31T16:30:52;98995.28;;;30.52;39.68
23170;BME280;11753;43.144;24.714;2023-07-31T16:31:52;98985.97;;;30.07;40.57
23170;BME280;11753;43.144;24.714;2023-07-31T16:32:52;98995.53;;;30.23;40.52
23170;BME280;11753;43.144;24.714;2023-07-31T16:33:53;98989.53;;;30.40;40.28
23170;BME280;11753;43.144;24.714;2023-07-31T16:34:53;98989.41;;;30.91;39.31
23170;BME280;11753;43.144;24.714;2023-07-31T16:35:54;98997.06;;;31.31;38.85
23170;BME280;11753;43.144;24.714;2023-07-31T16:36:54;98991.84;;;31.93;37.91
23170;BME280;11753;43.144;24.714;2023-07-31T16:37:55;98993.28;;;32.35;36.90
23170;BME280;11753;43.144;24.714;2023-07-31T16:38:56;98987.34;;;33.04;35.86
23170;BME280;11753;43.144;24.714;2023-07-31T16:39:56;98990.97;;;33.48;35.03
23170;BME280;11753;43.144;24.714;2023-07-31T16:40:57;98997.59;;;33.90;34.56
23170;BME280;11753;43.144;24.714;2023-07-31T16:41:57;98995.75;;;34.29;33.86
23170;BME280;11753;43.144;24.714;2023-07-31T16:42:57;98996.88;;;34.83;33.43
23170;BME280;11753;43.144;24.714;2023-07-31T16:43:58;98998.88;;;35.33;32.48
23170;BME280;11753;43.144;24.714;2023-07-31T16:44:58;99007.78;;;35.72;31.87
23170;BME280;11753;43.144;24.714;2023-07-31T16:45:58;99018.97;;;36.08;31.69
23170;BME280;11753;43.144;24.714;2023-07-31T16:46:59;99016.91;;;36.38;31.58
23170;BME280;11753;43.144;24.714;2023-07-31T16:48:00;99015.41;;;36.41;33.12
23170;BME280;11753;43.144;24.714;2023-07-31T16:49:00;99022.34;;;36.05;34.84
23170;BME280;11753;43.144;24.714;2023-07-31T16:50:01;99029.75;;;35.42;36.18
23170;BME280;11753;43.144;24.714;2023-07-31T16:51:01;99028.72;;;34.88;37.12
23170;BME280;11753;43.144;24.714;2023-07-31T16:52:03;99029.97;;;34.43;38.21
23170;BME280;11753;43.144;24.714;2023-07-31T16:53:03;99037.84;;;33.76;40.17
23170;BME280;11753;43.144;24.714;2023-07-31T16:54:03;99041.28;;;33.24;41.42
23170;BME280;11753;43.144;24.714;2023-07-31T16:55:04;99038.91;;;32.92;42.45
23170;BME280;11753;43.144;24.714;2023-07-31T16:56:04;99036.69;;;32.63;43.49
23170;BME280;11753;43.144;24.714;2023-07-31T16:57:06;99033.38;;;32.74;42.95
23170;BME280;11753;43.144;24.714;2023-07-31T16:58:07;99042.75;;;32.59;44.14
23170;BME280;11753;43.144;24.714;2023-07-31T16:59:07;99036.97;;;32.52;43.93
23170;BME280;11753;43.144;24.714;2023-07-31T17:00:08;99038.38;;;32.81;44.11
23170;BME280;11753;43.144;24.714;2023-07-31T17:01:09;99042.50;;;33.01;43.17
23170;BME280;11753;43.144;24.714;2023-07-31T17:02:10;99038.75;;;33.36;42.86
23170;BME280;11753;43.144;24.714;2023-07-31T17:03:10;99037.44;;;33.25;42.76
23170;BME280;11753;43.144;24.714;2023-07-31T17:04:11;99040.41;;;33.55;42.38
23170;BME280;11753;43.144;24.714;2023-07-31T17:05:11;99040.13;;;33.65;42.37
23170;BME280;11753;43.144;24.714;2023-07-31T17:06:11;99035.94;;;33.76;42.06
23170;BME280;11753;43.144;24.714;2023-07-31T17:07:12;99036.75;;;34.11;41.25
23170;BME280;11753;43.144;24.714;2023-07-31T17:08:13;99037.06;;;34.44;40.62
23170;BME280;11753;43.144;24.714;2023-07-31T17:09:14;99039.66;;;34.79;40.22
23170;BME280;11753;43.144;24.714;2023-07-31T17:10:15;99045.09;;;34.96;39.45
23170;BME280;11753;43.144;24.714;2023-07-31T17:11:15;99040.84;;;35.08;39.13
23170;BME280;11753;43.144;24.714;2023-07-31T17:12:15;99043.84;;;35.23;39.05
23170;BME280;11753;43.144;24.714;2023-07-31T17:13:16;99037.00;;;35.38;38.68
23170;BME280;11753;43.144;24.714;2023-07-31T17:14:16;99042.56;;;35.50;38.17
23170;BME280;11753;43.144;24.714;2023-07-31T17:15:16;99038.72;;;35.51;38.23
23170;BME280;11753;43.144;24.714;2023-07-31T17:16:19;99039.00;;;35.59;38.18
23170;BME280;11753;43.144;24.714;2023-07-31T17:17:20;99045.28;;;35.50;38.14
23170;BME280;11753;43.144;24.714;2023-07-31T17:18:23;99043.50;;;35.54;38.25
23170;BME280;11753;43.144;24.714;2023-07-31T17:19:23;99044.47;;;35.59;38.24
23170;BME280;11753;43.144;24.714;2023-07-31T17:20:24;99044.59;;;35.62;38.35
23170;BME280;11753;43.144;24.714;2023-07-31T17:21:24;99044.03;;;35.48;38.35
23170;BME280;11753;43.144;24.714;2023-07-31T17:22:25;99047.44;;;35.36;38.74
23170;BME280;11753;43.144;24.714;2023-07-31T17:23:26;99051.25;;;35.23;38.95
23170;BME280;11753;43.144;24.714;2023-07-31T17:24:26;99051.22;;;34.93;39.55
23170;BME280;11753;43.144;24.714;2023-07-31T17:25:26;99054.34;;;34.66;40.23
23170;BME280;11753;43.144;24.714;2023-07-31T17:26:27;99052.31;;;34.28;40.87
23170;BME280;11753;43.144;24.714;2023-07-31T17:27:28;99047.38;;;33.96;41.55
23170;BME280;11753;43.144;24.714;2023-07-31T17:28:28;99054.38;;;33.62;42.53
23170;BME280;11753;43.144;24.714;2023-07-31T17:29:29;99050.28;;;33.33;42.85
23170;BME280;11753;43.144;24.714;2023-07-31T17:30:30;99058.38;;;33.07;43.91
23170;BME280;11753;43.144;24.714;2023-07-31T17:31:30;99066.00;;;32.88;44.15
23170;BME280;11753;43.144;24.714;2023-07-31T17:32:31;99064.50;;;32.51;45.45
23170;BME280;11753;43.144;24.714;2023-07-31T17:33:31;99057.78;;;32.12;46.07
23170;BME280;11753;43.144;24.714;2023-07-31T17:34:32;99053.13;;;31.90;46.88
23170;BME280;11753;43.144;24.714;2023-07-31T17:35:32;99057.50;;;31.64;47.59
23170;BME280;11753;43.144;24.714;2023-07-31T17:36:32;99061.69;;;31.34;48.54
23170;BME280;11753;43.144;24.714;2023-07-31T17:37:33;99057.94;;;31.02;49.26
23170;BME280;11753;43.144;24.714;2023-07-31T17:38:34;99058.13;;;30.92;49.64
23170;BME280;11753;43.144;24.714;2023-07-31T17:39:35;99061.81;;;30.68;50.20
23170;BME280;11753;43.144;24.714;2023-07-31T17:40:37;99056.94;;;30.52;51.29
23170;BME280;11753;43.144;24.714;2023-07-31T17:41:37;99054.47;;;29.99;53.48
23170;BME280;11753;43.144;24.714;2023-07-31T17:42:37;99062.50;;;28.70;57.94
23170;BME280;11753;43.144;24.714;2023-07-31T17:43:38;99062.47;;;28.46;59.85
23170;BME280;11753;43.144;24.714;2023-07-31T17:44:38;99073.88;;;28.43;59.91
23170;BME280;11753;43.144;24.714;2023-07-31T17:45:39;99074.22;;;28.32;60.77
23170;BME280;11753;43.144;24.714;2023-07-31T17:46:40;99069.41;;;28.23;61.49
23170;BME280;11753;43.144;24.714;2023-07-31T17:47:40;99076.25;;;28.11;62.07
23170;BME280;11753;43.144;24.714;2023-07-31T17:48:40;99079.47;;;28.13;61.87
23170;BME280;11753;43.144;24.714;2023-07-31T17:49:43;99077.84;;;28.12;62.12
23170;BME280;11753;43.144;24.714;2023-07-31T17:50:50;99078.97;;;28.06;62.14
23170;BME280;11753;43.144;24.714;2023-07-31T17:51:51;99071.75;;;27.96;63.08
23170;BME280;11753;43.144;24.714;2023-07-31T17:52:51;99079.06;;;27.90;63.94
23170;BME280;11753;43.144;24.714;2023-07-31T17:53:52;99072.06;;;27.84;64.16
23170;BME280;11753;43.144;24.714;2023-07-31T17:54:52;99079.66;;;27.82;64.03
23170;BME280;11753;43.144;24.714;2023-07-31T17:55:54;99077.84;;;27.67;64.73
23170;BME280;11753;43.144;24.714;2023-07-31T17:56:54;99081.91;;;27.65;64.49
23170;BME280;11753;43.144;24.714;2023-07-31T17:57:54;99081.66;;;27.56;65.06
23170;BME280;11753;43.144;24.714;2023-07-31T17:58:55;99076.53;;;27.50;65.33
23170;BME280;11753;43.144;24.714;2023-07-31T17:59:55;99077.69;;;27.43;65.54
23170;BME280;11753;43.144;24.714;2023-07-31T18:00:56;99083.09;;;27.33;66.53
23170;BME280;11753;43.144;24.714;2023-07-31T18:01:56;99077.19;;;27.21;66.75
23170;BME280;11753;43.144;24.714;2023-07-31T18:02:57;99084.25;;;26.97;68.11
23170;BME280;11753;43.144;24.714;2023-07-31T18:03:57;99081.59;;;26.86;69.04
23170;BME280;11753;43.144;24.714;2023-07-31T18:04:58;99081.31;;;26.88;69.14
23170;BME280;11753;43.144;24.714;2023-07-31T18:05:58;99088.84;;;26.86;69.59
23170;BME280;11753;43.144;24.714;2023-07-31T18:06:58;99087.53;;;26.78;70.31
23170;BME280;11753;43.144;24.714;2023-07-31T18:07:59;99088.63;;;26.72;71.05
23170;BME280;11753;43.144;24.714;2023-07-31T18:09:05;99099.44;;;26.72;71.09
23170;BME280;11753;43.144;24.714;2023-07-31T18:10:09;99095.09;;;26.66;70.97
23170;BME280;11753;43.144;24.714;2023-07-31T18:11:23;99092.41;;;26.61;71.29
23170;BME280;11753;43.144;24.714;2023-07-31T18:12:26;99094.56;;;26.49;72.57
23170;BME280;11753;43.144;24.714;2023-07-31T18:13:27;99095.00;;;26.00;75.99
23170;BME280;11753;43.144;24.714;2023-07-31T18:14:27;99094.72;;;25.81;77.47
23170;BME280;11753;43.144;24.714;2023-07-31T18:15:32;99099.28;;;25.75;77.98
23170;BME280;11753;43.144;24.714;2023-07-31T18:16:34;99106.00;;;25.78;77.45
23170;BME280;11753;43.144;24.714;2023-07-31T18:17:35;99102.50;;;25.72;77.95
23170;BME280;11753;43.144;24.714;2023-07-31T18:21:55;99114.94;;;25.84;76.80
23170;BME280;11753;43.144;24.714;2023-07-31T18:22:59;99119.78;;;25.82;77.05
23170;BME280;11753;43.144;24.714;2023-07-31T18:24:01;99120.31;;;25.84;77.06
